createdAt,value
2018-05-03T00:00:31.757Z,3.10
2018-05-03T00:01:34.304Z,2.78
2018-05-03T00:02:37.565Z,2.72
2018-05-03T00:03:40.059Z,3.55
2018-05-03T00:04:43.327Z,4.07
2018-05-03T00:05:46.072Z,3.42
2018-05-03T00:06:49.335Z,3.03
2018-05-03T00:07:51.828Z,2.70
2018-05-03T00:08:54.299Z,2.80
2018-05-03T00:09:57.608Z,3.90
2018-05-03T00:11:00.394Z,3.67
2018-05-03T00:12:02.920Z,4.25
2018-05-03T00:13:05.412Z,3.25
2018-05-03T00:14:08.729Z,5.22
2018-05-03T00:15:11.690Z,3.30
2018-05-03T00:16:16.246Z,4.18
2018-05-03T00:17:18.756Z,4.05
2018-05-03T00:18:21.253Z,4.40
2018-05-03T00:19:23.733Z,3.25
2018-05-03T00:20:26.639Z,3.92
2018-05-03T00:21:29.972Z,3.17
2018-05-03T00:22:32.439Z,3.22
2018-05-03T00:23:34.903Z,4.22
2018-05-03T00:24:37.368Z,3.12
2018-05-03T00:25:40.110Z,2.87
2018-05-03T00:26:42.592Z,3.03
2018-05-03T00:27:45.060Z,2.72
2018-05-03T00:28:48.356Z,4.00
2018-05-03T00:29:50.864Z,3.12
2018-05-03T00:30:54.483Z,5.20
2018-05-03T00:31:57.003Z,3.10
2018-05-03T00:32:59.464Z,2.80
2018-05-03T00:34:01.940Z,4.62
2018-05-03T00:35:04.647Z,4.60
2018-05-03T00:36:07.521Z,4.37
2018-05-03T00:37:10.020Z,3.40
2018-05-03T00:38:12.487Z,4.20
2018-05-03T00:39:15.023Z,3.75
2018-05-03T00:40:17.788Z,3.03
2018-05-03T00:41:20.597Z,4.12
2018-05-03T00:42:23.080Z,4.05
2018-05-03T00:43:25.557Z,3.10
2018-05-03T00:44:28.788Z,3.45
2018-05-03T00:45:31.542Z,4.50
2018-05-03T00:46:34.097Z,3.00
2018-05-03T00:47:37.331Z,5.03
2018-05-03T00:48:39.795Z,2.78
2018-05-03T00:49:42.269Z,7.37
2018-05-03T00:50:45.041Z,4.72
2018-05-03T00:51:48.308Z,2.90
2018-05-03T00:52:50.772Z,2.97
2018-05-03T00:53:53.241Z,3.95
2018-05-03T00:54:55.708Z,3.78
2018-05-03T00:55:58.369Z,5.25
2018-05-03T00:57:00.876Z,5.28
2018-05-03T00:58:04.112Z,4.07
2018-05-03T00:59:06.576Z,3.15
2018-05-03T01:00:09.254Z,3.20
2018-05-03T01:01:12.325Z,3.22
2018-05-03T01:02:14.868Z,4.30
2018-05-03T01:03:17.351Z,3.67
2018-05-03T01:04:19.815Z,3.08
2018-05-03T01:05:22.663Z,2.95
2018-05-03T01:06:25.376Z,4.22
2018-05-03T01:07:27.877Z,5.03
2018-05-03T01:08:31.103Z,6.22
2018-05-03T01:09:33.577Z,5.03
2018-05-03T01:10:37.441Z,5.68
2018-05-03T01:11:39.944Z,2.97
2018-05-03T01:12:42.428Z,4.80
2018-05-03T01:13:44.892Z,3.53
2018-05-03T01:14:47.351Z,3.40
2018-05-03T01:15:50.172Z,3.17
2018-05-03T01:16:52.676Z,5.60
2018-05-03T01:17:55.157Z,5.12
2018-05-03T01:18:57.638Z,6.00
2018-05-03T01:20:00.910Z,4.60
2018-05-03T01:21:03.638Z,5.28
2018-05-03T01:22:06.124Z,5.62
2018-05-03T01:23:08.636Z,4.03
2018-05-03T01:24:11.869Z,7.03
2018-05-03T01:25:14.617Z,4.70
2018-05-03T01:26:17.478Z,4.18
2018-05-03T01:27:19.996Z,4.28
2018-05-03T01:28:22.556Z,4.95
2018-05-03T01:29:25.728Z,2.87
2018-05-03T01:30:28.564Z,2.85
2018-05-03T01:31:31.071Z,5.40
2018-05-03T01:32:33.556Z,5.57
2018-05-03T01:33:36.055Z,4.00
2018-05-03T01:34:38.516Z,4.87
2018-05-03T01:35:53.173Z,3.80
2018-05-03T01:36:56.475Z,5.18
2018-05-03T01:37:58.953Z,4.12
2018-05-03T01:39:01.436Z,3.55
2018-05-03T01:40:04.154Z,4.70
2018-05-03T01:41:06.973Z,3.20
2018-05-03T01:42:09.452Z,5.40
2018-05-03T01:43:13.444Z,3.65
2018-05-03T01:44:15.930Z,4.75
2018-05-03T01:45:19.549Z,3.05
2018-05-03T01:46:22.341Z,4.03
2018-05-03T01:47:24.824Z,4.82
2018-05-03T01:48:27.307Z,4.85
2018-05-03T01:49:29.784Z,3.35
2018-05-03T01:50:33.304Z,3.00
2018-05-03T01:51:35.807Z,4.78
2018-05-03T01:52:38.344Z,2.90
2018-05-03T01:53:40.829Z,4.00
2018-05-03T01:54:43.300Z,3.17
2018-05-03T01:55:46.136Z,6.15
2018-05-03T01:56:48.623Z,6.10
2018-05-03T01:57:51.180Z,4.70
2018-05-03T01:58:53.655Z,2.50
2018-05-03T01:59:56.115Z,3.92
2018-05-03T02:00:58.866Z,4.70
2018-05-03T02:02:01.427Z,4.15
2018-05-03T02:03:03.908Z,3.45
2018-05-03T02:04:06.392Z,3.12
2018-05-03T02:05:09.133Z,3.37
2018-05-03T02:06:12.724Z,2.62
2018-05-03T02:07:15.360Z,2.70
2018-05-03T02:08:18.599Z,4.28
2018-05-03T02:09:21.096Z,5.22
2018-05-03T02:10:23.750Z,3.78
2018-05-03T02:11:26.481Z,3.25
2018-05-03T02:12:28.987Z,4.65
2018-05-03T02:13:31.458Z,2.70
2018-05-03T02:14:33.961Z,3.45
2018-05-03T02:15:37.405Z,2.40
2018-05-03T02:16:39.884Z,4.62
2018-05-03T02:17:42.348Z,4.05
2018-05-03T02:18:44.812Z,2.85
2018-05-03T02:19:47.296Z,3.33
2018-05-03T02:20:50.858Z,2.50
2018-05-03T02:21:54.115Z,4.68
2018-05-03T02:22:56.584Z,2.50
2018-05-03T02:23:59.051Z,2.55
2018-05-03T02:25:01.811Z,3.03
2018-05-03T02:26:04.706Z,2.97
2018-05-03T02:27:07.976Z,2.72
2018-05-03T02:28:10.455Z,2.87
2018-05-03T02:29:12.927Z,3.25
2018-05-03T02:30:15.647Z,2.30
2018-05-03T02:31:18.333Z,2.40
2018-05-03T02:32:20.828Z,2.30
2018-05-03T02:33:23.297Z,2.65
2018-05-03T02:34:25.781Z,2.58
2018-05-03T02:35:29.302Z,4.15
2018-05-03T02:36:31.801Z,2.50
2018-05-03T02:37:34.268Z,2.67
2018-05-03T02:38:37.544Z,2.30
2018-05-03T02:39:40.020Z,2.87
2018-05-03T02:40:42.793Z,2.53
2018-05-03T02:41:45.285Z,2.25
2018-05-03T02:42:48.532Z,2.92
2018-05-03T02:43:50.995Z,3.37
2018-05-03T02:44:53.460Z,3.10
2018-05-03T02:45:56.196Z,2.83
2018-05-03T02:46:58.696Z,2.60
2018-05-03T02:48:01.161Z,2.75
2018-05-03T02:49:03.633Z,3.33
2018-05-03T02:50:06.404Z,3.80
2018-05-03T02:51:10.051Z,6.22
2018-05-03T02:52:12.548Z,3.10
2018-05-03T02:53:15.016Z,2.67
2018-05-03T02:54:17.488Z,2.83
2018-05-03T02:55:20.322Z,2.70
2018-05-03T02:56:23.028Z,3.37
2018-05-03T02:57:37.509Z,2.60
2018-05-03T02:58:52.777Z,2.53
2018-05-03T03:00:08.064Z,2.95
2018-05-03T03:01:28.720Z,2.97
2018-05-03T03:02:49.636Z,2.95
2018-05-03T03:04:10.608Z,4.47
2018-05-03T03:05:31.014Z,2.70
2018-05-03T03:06:51.220Z,4.10
2018-05-03T03:10:09.869Z,2.65
2018-05-03T03:11:28.104Z,3.62
2018-05-03T03:12:58.005Z,4.22
2018-05-03T03:14:18.089Z,2.75
2018-05-03T03:15:38.503Z,3.95
2018-05-03T03:16:58.892Z,2.62
2018-05-03T03:18:13.383Z,3.80
2018-05-03T03:19:28.531Z,3.72
2018-05-03T03:20:57.858Z,4.25
2018-05-03T03:22:18.865Z,4.43
2018-05-03T03:23:39.100Z,5.20
2018-05-03T03:26:41.726Z,5.25
2018-05-03T03:28:02.176Z,5.95
2018-05-03T03:29:22.958Z,6.47
2018-05-03T03:30:43.318Z,7.60
2018-05-03T03:32:03.612Z,7.07
2018-05-03T03:33:18.109Z,6.57
2018-05-03T03:34:24.086Z,8.23
2018-05-03T03:37:14.989Z,7.03
2018-05-03T03:38:35.260Z,8.43
2018-05-03T03:39:49.525Z,10.45
2018-05-03T03:41:04.173Z,8.40
2018-05-03T03:44:15.255Z,7.65
2018-05-03T03:45:17.984Z,8.25
2018-05-03T03:46:20.657Z,11.02
2018-05-03T03:47:23.154Z,8.80
2018-05-03T03:48:25.625Z,9.35
2018-05-03T03:49:28.110Z,8.65
2018-05-03T03:50:30.753Z,8.88
2018-05-03T03:51:33.248Z,9.43
2018-05-03T03:52:35.720Z,9.15
2018-05-03T03:53:38.948Z,9.48
2018-05-03T03:54:41.448Z,9.30
2018-05-03T03:55:44.162Z,9.57
2018-05-03T03:56:46.656Z,8.70
2018-05-03T03:57:49.129Z,9.18
2018-05-03T03:58:51.600Z,9.73
2018-05-03T03:59:54.134Z,10.10
2018-05-03T04:00:56.893Z,11.63
2018-05-03T04:01:59.394Z,10.43
2018-05-03T04:03:01.861Z,9.32
2018-05-03T04:04:04.332Z,10.70
2018-05-03T04:05:07.061Z,8.77
2018-05-03T04:06:09.731Z,9.00
2018-05-03T04:07:12.229Z,9.57
2018-05-03T04:08:14.714Z,9.25
2018-05-03T04:09:17.188Z,10.32
2018-05-03T04:10:20.812Z,9.18
2018-05-03T04:11:23.481Z,8.35
2018-05-03T04:12:25.976Z,8.43
2018-05-03T04:13:28.444Z,8.90
2018-05-03T04:14:30.912Z,7.93
2018-05-03T04:15:33.680Z,7.78
2018-05-03T04:16:36.168Z,8.65
2018-05-03T04:17:50.564Z,9.65
2018-05-03T04:19:04.948Z,9.63
2018-05-03T04:20:20.076Z,8.35
2018-05-03T04:21:34.380Z,6.72
2018-05-03T04:22:49.976Z,7.03
2018-05-03T04:24:13.279Z,6.60
2018-05-03T04:26:56.812Z,8.10
2018-05-03T04:27:59.287Z,7.65
2018-05-03T04:29:02.530Z,6.82
2018-05-03T04:30:05.174Z,6.47
2018-05-03T04:31:07.945Z,7.05
2018-05-03T04:32:10.444Z,7.30
2018-05-03T04:33:12.916Z,6.50
2018-05-03T04:34:15.375Z,7.80
2018-05-03T04:35:18.215Z,5.62
2018-05-03T04:36:20.984Z,7.62
2018-05-03T04:37:23.490Z,7.25
2018-05-03T04:38:25.971Z,5.72
2018-05-03T04:39:28.508Z,7.15
2018-05-03T04:40:31.251Z,5.93
2018-05-03T04:41:33.788Z,6.07
2018-05-03T04:42:37.076Z,5.90
2018-05-03T04:43:40.316Z,10.00
2018-05-03T04:44:42.807Z,4.80
2018-05-03T04:45:45.524Z,6.35
2018-05-03T04:46:48.040Z,8.77
2018-05-03T04:47:50.508Z,6.45
2018-05-03T04:48:52.988Z,5.70
2018-05-03T04:49:56.215Z,5.35
2018-05-03T04:50:59.815Z,6.22
2018-05-03T04:52:02.320Z,6.22
2018-05-03T04:53:05.557Z,5.97
2018-05-03T04:54:08.058Z,7.80
2018-05-03T04:55:10.714Z,7.15
2018-05-03T04:56:13.401Z,7.05
2018-05-03T04:57:16.688Z,5.28
2018-05-03T04:58:20.050Z,6.57
2018-05-03T04:59:22.532Z,6.60
2018-05-03T05:00:25.277Z,4.87
2018-05-03T05:01:28.037Z,5.68
2018-05-03T05:02:30.518Z,7.93
2018-05-03T05:03:32.980Z,5.10
2018-05-03T05:04:35.460Z,4.30
2018-05-03T05:05:38.214Z,9.05
2018-05-03T05:06:41.510Z,6.10
2018-05-03T05:07:44.014Z,4.95
2018-05-03T05:08:46.529Z,7.18
2018-05-03T05:09:48.996Z,6.43
2018-05-03T05:10:51.644Z,8.10
2018-05-03T05:11:54.131Z,5.62
2018-05-03T05:12:56.617Z,8.25
2018-05-03T05:13:59.084Z,4.97
2018-05-03T05:15:03.000Z,4.40
2018-05-03T05:16:05.764Z,5.55
2018-05-03T05:17:08.253Z,7.82
2018-05-03T05:18:10.745Z,7.10
2018-05-03T05:19:13.306Z,5.95
2018-05-03T05:20:16.153Z,5.18
2018-05-03T05:21:19.028Z,6.65
2018-05-03T05:22:21.556Z,6.55
2018-05-03T05:23:24.288Z,11.98
2018-05-03T05:24:26.751Z,6.25
2018-05-03T05:25:29.413Z,3.85
2018-05-03T05:26:31.896Z,7.35
2018-05-03T05:27:34.355Z,6.37
2018-05-03T05:28:36.854Z,6.40
2018-05-03T05:29:40.108Z,6.37
2018-05-03T05:30:42.987Z,6.18
2018-05-03T05:31:45.463Z,6.10
2018-05-03T05:32:47.965Z,6.45
2018-05-03T05:33:50.707Z,7.78
2018-05-03T05:34:53.193Z,5.10
2018-05-03T05:35:56.805Z,7.80
2018-05-03T05:36:59.363Z,6.78
2018-05-03T05:38:01.840Z,5.20
2018-05-03T05:39:04.429Z,6.03
2018-05-03T05:40:07.178Z,10.85
2018-05-03T05:41:10.098Z,7.47
2018-05-03T05:42:13.356Z,7.10
2018-05-03T05:43:15.819Z,7.00
2018-05-03T05:44:18.331Z,9.88
2018-05-03T05:45:20.987Z,8.60
2018-05-03T05:46:24.518Z,6.37
2018-05-03T05:47:27.176Z,9.38
2018-05-03T05:48:29.704Z,9.18
2018-05-03T05:49:32.352Z,5.57
2018-05-03T05:50:35.193Z,5.25
2018-05-03T05:51:37.691Z,7.82
2018-05-03T05:52:40.157Z,7.07
2018-05-03T05:53:42.652Z,8.98
2018-05-03T05:54:45.539Z,6.82
2018-05-03T05:55:49.219Z,9.40
2018-05-03T05:56:52.496Z,6.68
2018-05-03T05:57:56.576Z,6.07
2018-05-03T05:58:59.040Z,8.32
2018-05-03T06:00:01.564Z,7.72
2018-05-03T06:01:04.285Z,9.68
2018-05-03T06:02:07.952Z,9.45
2018-05-03T06:03:10.468Z,7.80
2018-05-03T06:04:13.720Z,6.62
2018-05-03T06:05:16.498Z,9.18
2018-05-03T06:06:19.278Z,6.55
2018-05-03T06:07:22.539Z,7.60
2018-05-03T06:08:25.090Z,7.97
2018-05-03T06:09:27.564Z,8.95
2018-05-03T06:10:30.512Z,8.02
2018-05-03T06:11:33.019Z,8.00
2018-05-03T06:12:35.518Z,10.57
2018-05-03T06:13:38.752Z,8.85
2018-05-03T06:14:41.220Z,8.30
2018-05-03T06:15:44.005Z,8.60
2018-05-03T06:16:46.533Z,8.15
2018-05-03T06:17:49.000Z,11.02
2018-05-03T06:18:51.476Z,8.15
2018-05-03T06:19:53.940Z,12.37
2018-05-03T06:20:56.793Z,6.85
2018-05-03T06:22:01.140Z,9.32
2018-05-03T06:23:03.620Z,11.30
2018-05-03T06:24:06.108Z,9.48
2018-05-03T06:25:09.831Z,9.02
2018-05-03T06:26:12.596Z,11.98
2018-05-03T06:27:15.096Z,10.80
2018-05-03T06:28:17.580Z,10.88
2018-05-03T06:29:20.044Z,10.57
2018-05-03T06:30:22.870Z,8.98
2018-05-03T06:31:26.581Z,9.00
2018-05-03T06:32:29.082Z,10.18
2018-05-03T06:33:31.592Z,11.98
2018-05-03T06:34:34.064Z,11.02
2018-05-03T06:35:36.726Z,8.57
2018-05-03T06:36:39.236Z,8.68
2018-05-03T06:37:41.708Z,11.20
2018-05-03T06:38:44.193Z,8.80
2018-05-03T06:39:47.431Z,12.02
2018-05-03T06:40:50.185Z,7.20
2018-05-03T06:41:52.734Z,9.45
2018-05-03T06:42:55.236Z,10.02
2018-05-03T06:43:57.703Z,9.63
2018-05-03T06:45:01.955Z,9.90
2018-05-03T06:46:05.559Z,11.25
2018-05-03T06:47:08.077Z,8.25
2018-05-03T06:48:10.544Z,7.90
2018-05-03T06:49:13.028Z,8.05
2018-05-03T06:50:16.545Z,8.02
2018-05-03T06:51:19.258Z,12.30
2018-05-03T06:52:22.604Z,10.82
2018-05-03T06:53:25.088Z,12.10
2018-05-03T06:54:27.552Z,9.25
2018-05-03T06:55:30.299Z,10.10
2018-05-03T06:56:32.801Z,9.65
2018-05-03T06:57:35.307Z,10.23
2018-05-03T06:58:38.623Z,9.43
2018-05-03T06:59:41.070Z,11.15
2018-05-03T07:00:43.849Z,9.05
2018-05-03T07:01:46.351Z,9.48
2018-05-03T07:02:48.839Z,10.30
2018-05-03T07:03:51.330Z,7.90
2018-05-03T07:04:54.588Z,7.30
2018-05-03T07:05:57.734Z,11.15
2018-05-03T07:07:00.246Z,12.40
2018-05-03T07:08:03.503Z,9.90
2018-05-03T07:09:05.975Z,11.18
2018-05-03T07:10:08.792Z,12.85
2018-05-03T07:11:11.606Z,10.98
2018-05-03T07:12:14.876Z,10.02
2018-05-03T07:13:17.375Z,10.85
2018-05-03T07:14:20.624Z,9.25
2018-05-03T07:15:23.365Z,11.02
2018-05-03T07:16:26.266Z,8.48
2018-05-03T07:17:29.587Z,12.80
2018-05-03T07:18:32.853Z,9.20
2018-05-03T07:19:35.328Z,8.98
2018-05-03T07:20:38.087Z,12.77
2018-05-03T07:21:40.568Z,9.65
2018-05-03T07:22:43.817Z,13.32
2018-05-03T07:23:46.370Z,8.60
2018-05-03T07:24:49.563Z,10.85
2018-05-03T07:25:52.312Z,6.75
2018-05-03T07:26:54.804Z,10.05
2018-05-03T07:27:57.303Z,7.47
2018-05-03T07:29:00.000Z,13.07
2018-05-03T07:30:02.576Z,9.23
2018-05-03T07:31:06.274Z,8.35
2018-05-03T07:32:09.720Z,9.20
2018-05-03T07:33:12.203Z,9.57
2018-05-03T07:34:15.452Z,5.80
2018-05-03T07:35:19.100Z,12.82
2018-05-03T07:36:22.993Z,7.93
2018-05-03T07:37:25.478Z,11.63
2018-05-03T07:38:27.991Z,8.93
2018-05-03T07:39:31.256Z,10.77
2018-05-03T07:40:34.060Z,10.43
2018-05-03T07:41:36.616Z,11.85
2018-05-03T07:42:39.853Z,8.73
2018-05-03T07:43:42.323Z,9.40
2018-05-03T07:44:44.911Z,10.95
2018-05-03T07:45:47.751Z,10.35
2018-05-03T07:46:50.649Z,8.27
2018-05-03T07:47:53.132Z,10.88
2018-05-03T07:48:55.608Z,10.10
2018-05-03T07:49:58.876Z,11.57
2018-05-03T07:51:01.732Z,8.95
2018-05-03T07:52:04.227Z,9.80
2018-05-03T07:53:07.477Z,10.57
2018-05-03T07:54:09.948Z,9.48
2018-05-03T07:55:12.803Z,9.43
2018-05-03T07:56:15.431Z,7.43
2018-05-03T07:57:17.956Z,7.37
2018-05-03T07:58:20.498Z,8.32
2018-05-03T07:59:23.180Z,14.73
2018-05-03T08:00:25.913Z,8.48
2018-05-03T08:01:28.726Z,9.32
2018-05-03T08:02:32.095Z,14.30
2018-05-03T08:03:34.589Z,9.27
2018-05-03T08:04:37.960Z,10.00
2018-05-03T08:05:40.693Z,9.55
2018-05-03T08:06:43.196Z,8.43
2018-05-03T08:07:46.261Z,8.90
2018-05-03T08:08:48.784Z,9.05
2018-05-03T08:09:52.017Z,7.25
2018-05-03T08:10:54.794Z,9.25
2018-05-03T08:11:57.284Z,9.38
2018-05-03T08:12:59.767Z,7.37
2018-05-03T08:14:03.036Z,9.82
2018-05-03T08:15:05.790Z,9.73
2018-05-03T08:16:09.375Z,10.32
2018-05-03T08:17:11.863Z,7.53
2018-05-03T08:18:15.108Z,10.90
2018-05-03T08:19:17.610Z,9.93
2018-05-03T08:20:21.082Z,10.60
2018-05-03T08:21:23.579Z,9.35
2018-05-03T08:22:27.006Z,10.55
2018-05-03T08:23:29.469Z,7.05
2018-05-03T08:24:32.059Z,8.80
2018-05-03T08:25:34.891Z,11.57
2018-05-03T08:26:37.416Z,5.53
2018-05-03T08:27:40.660Z,10.93
2018-05-03T08:28:43.140Z,7.85
2018-05-03T08:29:45.624Z,8.18
2018-05-03T08:30:48.332Z,8.07
2018-05-03T08:31:50.935Z,9.45
2018-05-03T08:32:54.209Z,7.30
2018-05-03T08:33:57.460Z,5.75
2018-05-03T08:35:00.694Z,9.65
2018-05-03T08:36:03.523Z,6.93
2018-05-03T08:37:06.089Z,7.45
2018-05-03T08:38:08.587Z,10.13
2018-05-03T08:39:11.059Z,8.70
2018-05-03T08:40:13.789Z,8.45
2018-05-03T08:41:16.663Z,14.07
2018-05-03T08:42:19.219Z,8.50
2018-05-03T08:43:21.692Z,8.02
2018-05-03T08:44:24.171Z,10.15
2018-05-03T08:45:26.929Z,10.32
2018-05-03T08:46:29.466Z,8.73
2018-05-03T08:47:32.787Z,7.50
2018-05-03T08:48:35.260Z,7.07
2018-05-03T08:49:37.723Z,6.37
2018-05-03T08:50:40.580Z,8.80
2018-05-03T08:51:43.082Z,9.40
2018-05-03T08:52:45.572Z,10.30
2018-05-03T08:53:48.056Z,8.63
2018-05-03T08:54:51.298Z,5.75
2018-05-03T08:55:54.077Z,7.93
2018-05-03T08:56:58.063Z,6.87
2018-05-03T08:58:00.550Z,7.90
2018-05-03T08:59:04.539Z,5.50
2018-05-03T09:00:07.314Z,10.55
2018-05-03T09:01:10.895Z,8.10
2018-05-03T09:02:13.380Z,5.85
2018-05-03T09:03:16.627Z,8.07
2018-05-03T09:04:19.265Z,6.80
2018-05-03T09:05:22.044Z,5.57
2018-05-03T09:06:25.346Z,6.00
2018-05-03T09:07:28.001Z,6.35
2018-05-03T09:08:31.241Z,7.53
2018-05-03T09:09:34.502Z,8.68
2018-05-03T09:10:37.959Z,7.78
2018-05-03T09:11:40.503Z,5.85
2018-05-03T09:12:42.990Z,12.23
2018-05-03T09:13:45.500Z,9.10
2018-05-03T09:14:47.974Z,5.65
2018-05-03T09:15:50.679Z,11.15
2018-05-03T09:16:53.232Z,7.07
2018-05-03T09:17:56.463Z,9.73
2018-05-03T09:18:58.952Z,6.32
2018-05-03T09:20:01.441Z,5.97
2018-05-03T09:21:04.227Z,6.72
2018-05-03T09:22:06.715Z,9.30
2018-05-03T09:23:09.187Z,9.20
2018-05-03T09:24:11.695Z,4.78
2018-05-03T09:25:15.255Z,7.60
2018-05-03T09:26:18.092Z,7.97
2018-05-03T09:27:20.604Z,5.35
2018-05-03T09:28:24.560Z,4.47
2018-05-03T09:29:27.168Z,6.28
2018-05-03T09:30:30.091Z,13.40
2018-05-03T09:31:32.590Z,10.23
2018-05-03T09:32:35.084Z,4.82
2018-05-03T09:33:38.512Z,6.43
2018-05-03T09:34:41.018Z,10.75
2018-05-03T09:35:44.481Z,8.70
2018-05-03T09:36:47.008Z,10.25
2018-05-03T09:37:51.055Z,7.30
2018-05-03T09:38:53.844Z,8.85
2018-05-03T09:39:56.584Z,9.13
2018-05-03T09:40:59.546Z,12.70
2018-05-03T09:42:02.048Z,6.47
2018-05-03T09:43:04.540Z,6.72
2018-05-03T09:44:07.854Z,4.95
2018-05-03T09:45:10.666Z,9.98
2018-05-03T09:46:13.886Z,5.57
2018-05-03T09:47:16.891Z,7.82
2018-05-03T09:48:19.524Z,6.85
2018-05-03T09:49:22.998Z,4.22
2018-05-03T09:50:27.290Z,9.23
2018-05-03T09:51:30.796Z,8.77
2018-05-03T09:52:33.330Z,7.65
2018-05-03T09:53:36.523Z,2.72
2018-05-03T09:54:39.016Z,8.82
2018-05-03T09:55:41.930Z,7.85
2018-05-03T09:56:44.415Z,7.10
2018-05-03T09:57:47.136Z,4.22
2018-05-03T09:58:50.378Z,7.97
2018-05-03T09:59:53.699Z,5.45
2018-05-03T10:00:56.504Z,9.25
2018-05-03T10:01:58.996Z,6.07
2018-05-03T10:03:01.533Z,6.78
2018-05-03T10:04:04.016Z,6.78
2018-05-03T10:05:07.740Z,7.65
2018-05-03T10:06:11.458Z,7.32
2018-05-03T10:07:13.967Z,5.15
2018-05-03T10:08:16.460Z,6.70
2018-05-03T10:09:18.940Z,5.90
2018-05-03T10:10:21.698Z,4.78
2018-05-03T10:11:25.322Z,5.43
2018-05-03T10:12:27.824Z,5.40
2018-05-03T10:13:30.343Z,7.00
2018-05-03T10:14:33.651Z,4.95
2018-05-03T10:15:36.391Z,6.93
2018-05-03T10:16:39.672Z,4.80
2018-05-03T10:17:42.144Z,3.95
2018-05-03T10:18:44.617Z,6.82
2018-05-03T10:19:47.960Z,5.50
2018-05-03T10:20:50.799Z,10.10
2018-05-03T10:21:53.318Z,6.28
2018-05-03T10:22:55.782Z,5.65
2018-05-03T10:23:58.248Z,3.15
2018-05-03T10:25:01.170Z,9.95
2018-05-03T10:26:05.382Z,5.65
2018-05-03T10:27:07.897Z,5.30
2018-05-03T10:28:10.456Z,5.20
2018-05-03T10:29:12.884Z,4.68
2018-05-03T10:30:16.256Z,6.18
2018-05-03T10:31:19.026Z,4.55
2018-05-03T10:32:21.580Z,6.43
2018-05-03T10:33:24.814Z,4.60
2018-05-03T10:34:27.280Z,5.80
2018-05-03T10:35:30.010Z,3.00
2018-05-03T10:36:32.519Z,6.20
2018-05-03T10:37:35.276Z,8.88
2018-05-03T10:38:37.803Z,5.75
2018-05-03T10:39:40.280Z,6.07
2018-05-03T10:40:43.148Z,5.20
2018-05-03T10:41:45.664Z,7.40
2018-05-03T10:42:49.150Z,5.50
2018-05-03T10:43:51.620Z,3.87
2018-05-03T10:44:54.137Z,5.10
2018-05-03T10:45:56.850Z,4.50
2018-05-03T10:47:00.202Z,5.37
2018-05-03T10:48:02.727Z,8.00
2018-05-03T10:49:06.223Z,6.25
2018-05-03T10:50:08.929Z,7.62
2018-05-03T10:51:12.505Z,4.40
2018-05-03T10:52:15.015Z,3.25
2018-05-03T10:53:17.507Z,5.68
2018-05-03T10:54:20.836Z,6.57
2018-05-03T10:55:24.446Z,4.90
2018-05-03T10:56:28.655Z,6.70
2018-05-03T10:57:31.129Z,7.85
2018-05-03T10:58:33.636Z,7.68
2018-05-03T10:59:36.107Z,8.38
2018-05-03T11:00:38.775Z,6.65
2018-05-03T11:01:41.336Z,5.95
2018-05-03T11:02:43.812Z,4.12
2018-05-03T11:03:46.328Z,5.65
2018-05-03T11:04:49.601Z,7.60
2018-05-03T11:05:52.366Z,7.28
2018-05-03T11:06:54.852Z,7.28
2018-05-03T11:07:57.332Z,6.10
2018-05-03T11:09:00.680Z,8.23
2018-05-03T11:10:03.459Z,4.97
2018-05-03T11:11:07.178Z,4.80
2018-05-03T11:12:09.720Z,3.20
2018-05-03T11:13:12.189Z,4.55
2018-05-03T11:14:16.216Z,5.40
2018-05-03T11:15:19.980Z,2.95
2018-05-03T11:16:23.421Z,8.75
2018-05-03T11:17:25.978Z,6.05
2018-05-03T11:18:29.103Z,7.18
2018-05-03T11:19:31.613Z,6.78
2018-05-03T11:20:34.464Z,5.22
2018-05-03T11:21:37.824Z,7.05
2018-05-03T11:22:40.296Z,7.30
2018-05-03T11:23:43.324Z,7.60
2018-05-03T11:24:45.820Z,9.73
2018-05-03T11:25:48.771Z,5.95
2018-05-03T11:26:51.390Z,5.25
2018-05-03T11:27:54.379Z,5.93
2018-05-03T11:28:57.869Z,6.45
2018-05-03T11:30:00.357Z,5.35
2018-05-03T11:31:03.241Z,4.45
2018-05-03T11:32:05.765Z,6.35
2018-05-03T11:33:08.272Z,4.28
2018-05-03T11:34:10.746Z,5.55
2018-05-03T11:35:13.714Z,4.12
2018-05-03T11:36:16.588Z,6.68
2018-05-03T11:37:19.120Z,2.33
2018-05-03T11:38:21.596Z,4.25
2018-05-03T11:39:24.850Z,6.12
2018-05-03T11:40:27.546Z,3.35
2018-05-03T11:41:30.876Z,6.18
2018-05-03T11:42:33.350Z,3.70
2018-05-03T11:43:35.824Z,3.03
2018-05-03T11:44:38.304Z,3.80
2018-05-03T11:45:41.063Z,3.17
2018-05-03T11:46:43.560Z,5.40
2018-05-03T11:47:46.788Z,3.83
2018-05-03T11:48:49.260Z,5.05
2018-05-03T11:49:51.765Z,4.57
2018-05-03T11:50:55.334Z,3.10
2018-05-03T11:51:58.589Z,6.55
2018-05-03T11:53:01.093Z,7.10
2018-05-03T11:54:03.598Z,4.57
2018-05-03T11:55:06.314Z,5.78
2018-05-03T11:56:09.111Z,8.18
2018-05-03T11:57:12.422Z,9.88
2018-05-03T11:58:15.003Z,7.78
2018-05-03T11:59:17.551Z,6.85
2018-05-03T12:00:20.329Z,5.72
2018-05-03T12:01:23.207Z,6.80
2018-05-03T12:02:25.727Z,4.55
2018-05-03T12:03:28.196Z,4.75
2018-05-03T12:04:30.681Z,5.40
2018-05-03T12:05:34.287Z,5.05
2018-05-03T12:06:36.791Z,4.10
2018-05-03T12:07:39.261Z,3.30
2018-05-03T12:08:41.749Z,4.35
2018-05-03T12:09:45.740Z,3.28
2018-05-03T12:10:48.517Z,5.35
2018-05-03T12:11:52.761Z,4.12
2018-05-03T12:12:55.156Z,3.33
2018-05-03T12:13:57.628Z,4.37
2018-05-03T12:15:00.151Z,4.65
2018-05-03T12:16:03.799Z,3.67
2018-05-03T12:17:06.326Z,5.70
2018-05-03T12:18:08.796Z,5.07
2018-05-03T12:19:11.271Z,5.95
2018-05-03T12:20:14.111Z,7.50
2018-05-03T12:21:16.893Z,6.18
2018-05-03T12:22:19.403Z,4.90
2018-05-03T12:23:22.023Z,4.97
2018-05-03T12:24:24.753Z,4.32
2018-05-03T12:25:28.282Z,5.00
2018-05-03T12:26:31.384Z,3.50
2018-05-03T12:27:33.860Z,3.42
2018-05-03T12:28:36.336Z,5.10
2018-05-03T12:29:38.812Z,3.92
2018-05-03T12:30:41.556Z,4.22
2018-05-03T12:31:44.056Z,6.18
2018-05-03T12:32:47.596Z,4.97
2018-05-03T12:33:50.108Z,3.45
2018-05-03T12:34:53.415Z,4.20
2018-05-03T12:35:56.912Z,4.75
2018-05-03T12:37:00.009Z,6.28
2018-05-03T12:38:02.862Z,4.97
2018-05-03T12:39:05.326Z,3.20
2018-05-03T12:40:08.202Z,6.62
2018-05-03T12:41:11.075Z,3.65
2018-05-03T12:42:13.580Z,5.28
2018-05-03T12:43:16.259Z,6.90
2018-05-03T12:44:18.756Z,5.32
2018-05-03T12:45:22.310Z,6.03
2018-05-03T12:46:25.853Z,5.15
2018-05-03T12:47:29.072Z,6.15
2018-05-03T12:48:31.604Z,8.10
2018-05-03T12:49:34.089Z,3.58
2018-05-03T12:50:36.870Z,4.57
2018-05-03T12:51:39.435Z,4.70
2018-05-03T12:52:42.613Z,4.68
2018-05-03T12:53:45.120Z,3.10
2018-05-03T12:54:48.360Z,3.87
2018-05-03T12:55:51.206Z,5.25
2018-05-03T12:56:53.724Z,5.35
2018-05-03T12:57:56.196Z,4.47
2018-05-03T12:59:00.440Z,5.85
2018-05-03T13:00:03.112Z,5.68
2018-05-03T13:01:06.613Z,6.25
2018-05-03T13:02:09.112Z,4.55
2018-05-03T13:03:11.585Z,5.97
2018-05-03T13:04:14.053Z,5.03
2018-05-03T13:05:18.606Z,7.10
2018-05-03T13:06:21.480Z,5.72
2018-05-03T13:07:23.993Z,4.28
2018-05-03T13:08:26.479Z,5.18
2018-05-03T13:09:28.943Z,4.93
2018-05-03T13:10:32.876Z,3.28
2018-05-03T13:11:35.384Z,4.50
2018-05-03T13:12:37.908Z,2.70
2018-05-03T13:13:40.391Z,4.10
2018-05-03T13:14:42.905Z,3.97
2018-05-03T13:15:46.832Z,2.12
2018-05-03T13:16:49.335Z,4.18
2018-05-03T13:17:51.835Z,3.22
2018-05-03T13:18:55.094Z,2.83
2018-05-03T13:19:57.564Z,5.00
2018-05-03T13:21:01.919Z,3.08
2018-05-03T13:22:04.424Z,4.07
2018-05-03T13:23:06.956Z,5.68
2018-05-03T13:24:09.489Z,3.10
2018-05-03T13:25:13.034Z,3.65
2018-05-03T13:26:15.912Z,3.00
2018-05-03T13:27:18.511Z,3.75
2018-05-03T13:28:21.744Z,3.35
2018-05-03T13:29:24.213Z,3.58
2018-05-03T13:30:27.067Z,3.87
2018-05-03T13:31:29.632Z,3.87
2018-05-03T13:32:32.101Z,4.75
2018-05-03T13:33:34.627Z,4.68
2018-05-03T13:34:38.607Z,4.75
2018-05-03T13:35:41.280Z,6.62
2018-05-03T13:36:44.192Z,5.40
2018-05-03T13:37:46.684Z,5.30
2018-05-03T13:38:49.152Z,2.87
2018-05-03T13:39:52.071Z,4.35
2018-05-03T13:40:56.423Z,5.87
2018-05-03T13:41:58.987Z,2.97
2018-05-03T13:43:01.488Z,4.40
2018-05-03T13:44:03.958Z,5.03
2018-05-03T13:45:07.021Z,4.55
2018-05-03T13:46:12.436Z,5.10
2018-05-03T13:47:14.951Z,3.85
2018-05-03T13:48:17.467Z,4.50
2018-05-03T13:49:19.947Z,4.78
2018-05-03T13:50:23.006Z,5.72
2018-05-03T13:51:26.084Z,3.62
2018-05-03T13:52:28.587Z,3.28
2018-05-03T13:53:31.091Z,6.12
2018-05-03T13:54:33.599Z,6.82
2018-05-03T13:55:36.399Z,5.15
2018-05-03T13:56:39.655Z,4.55
2018-05-03T13:57:42.156Z,6.18
2018-05-03T13:58:44.624Z,5.05
2018-05-03T13:59:47.875Z,6.30
2018-05-03T14:00:50.777Z,3.22
2018-05-03T14:01:54.048Z,3.30
2018-05-03T14:02:56.540Z,5.00
2018-05-03T14:03:59.780Z,4.40
2018-05-03T14:05:02.416Z,7.93
2018-05-03T14:06:05.154Z,6.12
2018-05-03T14:07:07.799Z,4.12
2018-05-03T14:08:10.187Z,5.12
2018-05-03T14:09:13.420Z,4.55
2018-05-03T14:10:17.001Z,5.32
2018-05-03T14:11:19.780Z,3.67